Time;durP1;ratioP1;P1;durP2;ratioP2;P2;SDS_P1;SDS_P2;PMS_P1;PMS_P2;Temp;Humidity;BMP_temperature;BMP_pressure;BME280_temperature;BME280_humidity;BME280_pressure;Samples;Min_cycle;Max_cycle;Signal;HPM_P1;HPM_P2
2022/09/15 00:02:26;;;;;;;10.15;3.55;;;;;;;25.53;58.28;100830.79;1609938;88;21077;-62
2022/09/15 00:04:54;;;;;;;9.45;3.87;;;;;;;25.51;58.36;100823.41;1610069;88;21081;-54
2022/09/15 00:07:21;;;;;;;12.63;3.80;;;;;;;25.51;58.35;100818.59;1609683;88;21106;-58
2022/09/15 00:09:47;;;;;;;9.90;4.45;;;;;;;25.49;58.46;100821.36;1611421;88;21818;-56
2022/09/15 00:12:14;;;;;;;9.88;4.17;;;;;;;25.54;58.42;100818.33;1612710;88;21041;-55
2022/09/15 00:14:41;;;;;;;11.45;4.62;;;;;;;25.54;58.45;100815.18;1608851;88;21143;-54
2022/09/15 00:17:09;;;;;;;8.45;3.77;;;;;;;25.52;58.54;100811.80;1612507;88;21101;-53
2022/09/15 00:19:36;;;;;;;11.90;3.60;;;;;;;25.53;58.58;100816.14;1612749;87;21593;-54
2022/09/15 00:22:02;;;;;;;12.05;3.52;;;;;;;25.52;58.60;100816.27;1600694;89;21094;-55
2022/09/15 00:24:29;;;;;;;10.50;4.75;;;;;;;25.51;58.76;100810.09;1601252;89;21042;-55
2022/09/15 00:26:55;;;;;;;10.58;3.90;;;;;;;25.50;58.69;100810.23;1593880;89;21070;-53
2022/09/15 00:29:22;;;;;;;9.05;3.60;;;;;;;25.49;58.71;100805.89;1599935;89;21070;-56
2022/09/15 00:31:49;;;;;;;10.43;3.90;;;;;;;25.47;58.60;100810.50;1597491;89;21551;-55
2022/09/15 00:34:16;;;;;;;9.83;3.90;;;;;;;25.46;58.49;100810.98;1602506;89;21074;-55
2022/09/15 00:36:42;;;;;;;10.55;3.50;;;;;;;25.47;58.29;100803.33;1601374;89;21694;-57
2022/09/15 00:39:09;;;;;;;8.35;3.33;;;;;;;25.44;58.00;100795.60;1601232;89;21383;-56
2022/09/15 00:41:35;;;;;;;10.85;3.58;;;;;;;25.43;57.79;100793.89;1601841;89;21082;-55
2022/09/15 00:44:19;;;;;;;10.05;3.95;;;;;;;25.42;57.59;100797.55;1549071;89;21069;-54
2022/09/15 00:46:51;;;;;;;12.68;3.87;;;;;;;25.42;57.35;100794.89;1515863;94;21120;-54
2022/09/15 00:49:27;;;;;;;9.13;3.75;;;;;;;25.41;56.99;100787.85;1516203;94;21108;-55
2022/09/15 00:52:12;;;;;;;10.08;3.37;;;;;;;25.40;56.52;100790.14;1516133;94;21076;-59
2022/09/15 00:54:50;;;;;;;9.73;3.60;;;;;;;25.39;56.20;100787.09;1497163;95;21576;-55
2022/09/15 00:57:23;;;;;;;7.28;3.30;;;;;;;25.39;55.99;100795.09;1474026;97;21645;-60
2022/09/15 00:59:49;;;;;;;8.20;2.83;;;;;;;25.38;55.79;100796.08;1496992;96;21085;-57
2022/09/15 01:02:22;;;;;;;7.28;3.02;;;;;;;25.37;55.65;100791.70;1474043;97;21121;-54
2022/09/15 01:04:52;;;;;;;8.90;3.22;;;;;;;25.36;55.51;100788.70;1477684;96;21602;-56
2022/09/15 01:07:32;;;;;;;6.80;3.52;;;;;;;25.35;55.35;100788.33;1448556;99;21104;-57
2022/09/15 01:10:20;;;;;;;6.87;2.85;;;;;;;25.35;55.14;100787.50;1448818;99;21109;-57
2022/09/15 01:12:46;;;;;;;8.30;3.22;;;;;;;25.34;54.80;100787.98;1429384;100;21639;-55
2022/09/15 01:15:13;;;;;;;7.55;3.37;;;;;;;25.32;54.52;100789.92;1448987;99;21139;-57
2022/09/15 01:17:51;;;;;;;8.95;3.52;;;;;;;25.32;54.37;100785.94;1432400;99;21139;-55
2022/09/15 01:20:35;;;;;;;6.58;3.30;;;;;;;25.31;54.13;100778.90;1446279;99;21208;-56
2022/09/15 01:23:39;;;;;;;8.88;2.90;;;;;;;25.31;53.89;100778.90;1372546;102;21252;-54
2022/09/15 01:26:34;;;;;;;12.80;3.75;;;;;;;25.31;53.62;100776.23;1409313;100;21157;-54
2022/09/15 01:29:44;;;;;;;8.90;3.72;;;;;;;25.33;53.35;100774.29;1410253;102;21639;-61
2022/09/15 01:35:14;;;;;;;13.48;4.28;;;;;;;25.31;53.36;100771.39;1314961;109;21708;-54
2022/09/15 01:37:58;;;;;;;18.92;3.80;;;;;;;25.31;53.34;100762.91;1333180;108;21173;-55
2022/09/15 01:40:28;;;;;;;17.07;3.85;;;;;;;25.31;53.39;100752.73;1327428;108;21292;-54
2022/09/15 01:42:55;;;;;;;11.97;4.05;;;;;;;25.30;53.43;100749.73;1327842;108;21165;-54
2022/09/15 01:45:25;;;;;;;7.97;3.42;;;;;;;25.30;53.42;100757.25;1327455;108;21157;-61
2022/09/15 01:47:53;;;;;;;11.00;2.98;;;;;;;25.30;53.25;100755.91;1333450;108;21689;-54
2022/09/15 01:50:27;;;;;;;9.95;4.00;;;;;;;25.30;53.01;100759.91;1333357;108;21190;-56
2022/09/15 01:52:55;;;;;;;7.53;3.15;;;;;;;25.31;52.93;100756.25;1335529;106;21205;-54
2022/09/15 01:55:28;;;;;;;10.23;3.80;;;;;;;25.30;52.75;100739.94;1361700;105;21170;-58
2022/09/15 01:57:56;;;;;;;12.43;3.92;;;;;;;25.31;52.52;100734.95;1361965;105;21200;-55
2022/09/15 02:00:22;;;;;;;17.35;4.20;;;;;;;25.32;52.36;100718.01;1392975;101;21142;-58
2022/09/15 02:02:54;;;;;;;17.35;4.83;;;;;;;25.33;52.41;100715.69;1372345;104;21164;-55
2022/09/15 02:05:39;;;;;;;12.37;4.08;;;;;;;25.34;52.76;100708.55;1476976;96;21571;-54
2022/09/15 02:08:24;;;;;;;18.20;4.83;;;;;;;25.35;53.36;100711.08;1455284;97;21149;-55
2022/09/15 02:10:59;;;;;;;12.70;4.50;;;;;;;25.34;53.68;100706.74;1488872;96;21070;-59
2022/09/15 02:13:59;;;;;;;12.47;4.20;;;;;;;25.33;53.85;100707.70;1450059;99;21122;-54
2022/09/15 02:16:30;;;;;;;12.47;3.70;;;;;;;25.33;53.99;100705.03;1419305;100;21116;-56
2022/09/15 02:19:30;;;;;;;9.48;3.52;;;;;;;25.31;53.96;100705.65;1426108;100;21655;-57
2022/09/15 02:22:22;;;;;;;15.03;4.28;;;;;;;25.30;53.89;100704.45;1422199;100;21143;-55
2022/09/15 02:25:03;;;;;;;9.03;3.35;;;;;;;25.29;53.89;100712.07;1406531;101;21207;-57
2022/09/15 02:27:33;;;;;;;8.33;3.42;;;;;;;25.26;53.93;100711.86;1387498;103;21124;-58
2022/09/15 02:30:05;;;;;;;10.25;3.80;;;;;;;25.25;53.94;100711.48;1404499;102;21653;-60
2022/09/15 02:32:33;;;;;;;19.12;4.70;;;;;;;25.24;53.96;100711.63;1386843;103;21610;-61
2022/09/15 02:35:03;;;;;;;11.38;4.15;;;;;;;25.22;54.05;100707.77;1389146;103;21220;-57
2022/09/15 02:37:28;;;;;;;14.43;4.33;;;;;;;25.20;53.97;100711.52;1389470;103;21167;-58
2022/09/15 02:42:27;;;;;;;9.73;3.05;;;;;;;25.18;53.69;100724.98;1358215;104;21216;-55
2022/09/15 02:44:54;;;;;;;6.15;2.70;;;;;;;25.18;53.56;100719.65;1359095;106;21635;-56
2022/09/15 02:47:20;;;;;;;6.60;3.35;;;;;;;25.19;53.38;100718.66;1365671;104;21150;-55
2022/09/15 02:49:47;;;;;;;15.18;3.45;;;;;;;25.19;53.29;100711.15;1373067;104;21746;-57
2022/09/15 02:52:13;;;;;;;12.93;3.95;;;;;;;25.20;53.26;100717.70;1373007;104;21200;-55
2022/09/15 02:54:40;;;;;;;10.32;3.27;;;;;;;25.21;53.32;100714.05;1373151;103;21206;-54
2022/09/15 02:57:07;;;;;;;13.85;4.58;;;;;;;25.23;53.48;100704.59;1373359;104;21581;-54
2022/09/15 03:02:19;;;;;;;18.12;4.30;;;;;;;25.23;53.80;100709.44;1373259;104;21610;-59
2022/09/15 03:04:47;;;;;;;16.85;4.08;;;;;;;25.24;53.87;100712.95;1372961;104;21157;-55
2022/09/15 03:07:13;;;;;;;17.35;4.50;;;;;;;25.24;53.95;100707.16;1373212;104;21165;-57
2022/09/15 03:09:40;;;;;;;16.37;4.15;;;;;;;25.25;54.00;100707.97;1377734;103;21628;-55
2022/09/15 03:12:08;;;;;;;13.58;4.10;;;;;;;25.24;54.11;100697.83;1388593;103;21681;-56
2022/09/15 03:14:34;;;;;;;10.03;4.08;;;;;;;25.25;54.36;100703.50;1388609;102;21205;-55
2022/09/15 03:17:02;;;;;;;10.78;3.47;;;;;;;25.25;54.60;100701.31;1407054;101;21625;-59
2022/09/15 03:19:28;;;;;;;8.10;3.92;;;;;;;25.25;54.84;100707.97;1430513;100;21153;-57
2022/09/15 03:21:55;;;;;;;5.95;3.00;;;;;;;25.24;54.94;100709.81;1458204;97;21228;-54
2022/09/15 03:24:22;;;;;;;9.93;3.55;;;;;;;25.23;54.98;100708.11;1459719;97;21129;-58
2022/09/15 03:26:49;;;;;;;6.55;2.60;;;;;;;25.23;54.99;100713.91;1459882;98;21598;-57
2022/09/15 03:29:15;;;;;;;8.15;3.47;;;;;;;25.22;55.03;100707.77;1459736;98;21086;-54
2022/09/15 03:31:42;;;;;;;10.93;4.20;;;;;;;25.21;55.00;100699.41;1459815;98;21137;-57
2022/09/15 03:34:08;;;;;;;17.77;4.90;;;;;;;25.22;54.95;100690.45;1459815;98;21120;-56
2022/09/15 03:36:37;;;;;;;14.70;4.65;;;;;;;25.21;54.81;100675.91;1479354;96;21087;-61
2022/09/15 03:39:03;;;;;;;22.30;5.33;;;;;;;25.21;54.92;100678.09;1474281;97;21122;-58
2022/09/15 03:41:30;;;;;;;14.20;5.08;;;;;;;25.21;55.14;100668.78;1498705;94;21107;-54
2022/09/15 03:43:57;;;;;;;15.20;4.85;;;;;;;25.20;55.14;100665.77;1530602;93;21169;-55
2022/09/15 03:46:23;;;;;;;17.20;4.58;;;;;;;25.19;55.20;100662.73;1594796;88;21096;-57
2022/09/15 03:48:50;;;;;;;16.77;5.17;;;;;;;25.20;55.25;100653.79;1613357;88;21096;-53
2022/09/15 03:51:17;;;;;;;22.70;4.70;;;;;;;25.19;55.20;100656.55;1612091;88;21747;-53
2022/09/15 03:53:43;;;;;;;12.47;4.80;;;;;;;25.19;55.12;100657.41;1611663;88;21569;-57
2022/09/15 03:56:31;;;;;;;15.23;4.65;;;;;;;25.17;55.07;100653.17;1612850;88;21054;-58
2022/09/15 03:59:00;;;;;;;7.60;3.60;;;;;;;25.17;55.06;100658.50;1616274;88;21093;-56
2022/09/15 04:01:28;;;;;;;12.47;3.72;;;;;;;25.17;54.94;100662.02;1612835;88;21053;-61
2022/09/15 04:03:54;;;;;;;10.00;3.40;;;;;;;25.16;54.92;100660.34;1613438;88;21060;-54
2022/09/15 04:06:21;;;;;;;10.18;3.35;;;;;;;25.17;54.88;100654.03;1585451;90;21066;-54
2022/09/15 04:08:49;;;;;;;9.23;3.62;;;;;;;25.17;54.77;100663.35;1585040;90;21093;-57
2022/09/15 04:11:16;;;;;;;9.55;3.45;;;;;;;25.18;54.70;100665.06;1573908;90;21119;-59
2022/09/15 04:13:43;;;;;;;3.35;2.40;;;;;;;25.20;54.55;100658.27;1587027;90;21546;-58
2022/09/15 04:16:17;;;;;;;8.75;3.33;;;;;;;25.21;54.22;100655.47;1575879;90;21602;-55
2022/09/15 04:18:44;;;;;;;5.87;2.70;;;;;;;25.22;53.89;100657.17;1613585;88;21087;-61
2022/09/15 04:21:14;;;;;;;6.65;2.52;;;;;;;25.22;53.67;100657.65;1581513;90;21161;-55
2022/09/15 04:23:41;;;;;;;9.03;3.58;;;;;;;25.24;53.49;100657.88;1638416;87;21052;-54
2022/09/15 04:26:22;;;;;;;7.12;2.70;;;;;;;25.25;53.34;100664.88;1638497;87;21056;-57
2022/09/15 04:28:49;;;;;;;10.48;3.30;;;;;;;25.26;53.21;100666.59;1634933;87;21037;-55
2022/09/15 04:31:16;;;;;;;7.53;3.02;;;;;;;25.28;53.13;100653.98;1636923;87;21529;-54
2022/09/15 04:33:42;;;;;;;8.25;3.83;;;;;;;25.30;53.09;100649.38;1636972;87;21089;-57
2022/09/15 04:36:16;;;;;;;12.75;3.72;;;;;;;25.33;53.11;100658.90;1636495;87;21088;-57
2022/09/15 04:38:43;;;;;;;13.08;3.85;;;;;;;25.34;53.13;100666.78;1605821;87;21090;-56
2022/09/15 04:41:10;;;;;;;9.18;3.20;;;;;;;25.37;53.14;100666.52;1606142;89;21108;-57
2022/09/15 04:43:37;;;;;;;8.23;3.15;;;;;;;25.40;53.02;100672.92;1604631;89;21059;-56
2022/09/15 04:46:04;;;;;;;10.20;2.80;;;;;;;25.42;53.04;100672.34;1598163;89;21040;-57
2022/09/15 04:48:32;;;;;;;7.17;2.60;;;;;;;25.46;53.00;100673.77;1602539;89;21075;-55
2022/09/15 04:51:07;;;;;;;4.28;2.60;;;;;;;25.48;52.94;100670.48;1605462;89;21049;-56
2022/09/15 04:53:36;;;;;;;4.58;2.30;;;;;;;25.51;52.81;100675.53;1605665;89;21051;-55
2022/09/15 04:56:11;;;;;;;6.08;2.47;;;;;;;25.55;52.72;100681.00;1605135;89;21064;-56
2022/09/15 04:58:40;;;;;;;5.90;2.75;;;;;;;25.58;52.64;100674.06;1605335;89;21554;-55
2022/09/15 05:01:13;;;;;;;6.60;2.33;;;;;;;25.62;52.27;100667.48;1605516;89;21566;-62
2022/09/15 05:03:41;;;;;;;8.08;2.92;;;;;;;25.63;52.07;100653.20;1592731;90;21104;-56
2022/09/15 05:06:10;;;;;;;8.15;3.05;;;;;;;25.66;52.01;100662.25;1593106;90;21057;-56
2022/09/15 05:08:37;;;;;;;10.25;3.58;;;;;;;25.67;51.96;100653.30;1582580;90;21062;-60
2022/09/15 05:11:09;;;;;;;9.10;3.45;;;;;;;25.69;51.96;100653.16;1593224;90;21578;-56
2022/09/15 05:13:36;;;;;;;8.05;3.47;;;;;;;25.71;51.91;100649.39;1592249;90;21053;-54
2022/09/15 05:18:39;;;;;;;7.65;3.17;;;;;;;25.75;51.60;100649.96;1487609;95;21110;-55
2022/09/15 05:21:07;;;;;;;12.30;4.05;;;;;;;25.78;51.31;100647.86;1489497;95;21117;-54
2022/09/15 05:23:35;;;;;;;9.73;2.83;;;;;;;25.82;50.79;100641.29;1490539;95;21081;-55
2022/09/15 05:26:07;;;;;;;6.55;2.87;;;;;;;25.82;50.79;100641.29;1490402;95;21136;-55
2022/09/15 05:28:36;;;;;;;11.48;3.70;;;;;;;25.84;50.64;100642.00;1487850;95;21149;-55
2022/09/15 05:31:23;;;;;;;16.20;3.83;;;;;;;25.88;50.58;100639.08;1490713;95;21116;-59
2022/09/15 05:33:51;;;;;;;8.00;2.90;;;;;;;25.94;50.33;100627.88;1484312;94;21667;-56
2022/09/15 05:36:22;;;;;;;9.33;3.20;;;;;;;25.94;50.33;100627.88;1494406;94;21541;-58
2022/09/15 05:38:48;;;;;;;9.15;3.67;;;;;;;25.98;50.41;100618.64;1494086;96;21122;-58
2022/09/15 05:41:16;;;;;;;9.78;3.35;;;;;;;26.02;50.48;100614.72;1493946;94;21220;-55
2022/09/15 05:43:45;;;;;;;10.40;3.27;;;;;;;26.05;50.75;100611.80;1493858;94;21155;-58
2022/09/15 05:46:12;;;;;;;6.15;2.37;;;;;;;26.07;50.85;100608.51;1494173;94;21065;-56
2022/09/15 05:48:39;;;;;;;9.73;2.75;;;;;;;26.10;51.05;100616.25;1494111;96;21090;-56
2022/09/15 05:51:05;;;;;;;8.00;3.17;;;;;;;26.15;51.31;100608.70;1494001;94;21111;-58
2022/09/15 05:53:34;;;;;;;5.28;2.80;;;;;;;26.21;51.33;100606.83;1494097;94;21083;-57
2022/09/15 05:56:04;;;;;;;6.37;2.80;;;;;;;26.27;51.46;100610.27;1499477;94;21172;-56
2022/09/15 05:58:31;;;;;;;8.08;3.33;;;;;;;26.34;51.46;100613.58;1506855;93;21093;-56
2022/09/15 06:01:09;;;;;;;5.83;2.80;;;;;;;26.42;51.20;100616.92;1481129;95;21146;-57
2022/09/15 06:03:36;;;;;;;3.22;2.33;;;;;;;26.47;50.55;100613.33;1445726;97;21164;-55
2022/09/15 06:06:05;;;;;;;5.70;2.15;;;;;;;26.55;49.41;100620.16;1447292;97;21240;-57
2022/09/15 06:08:38;;;;;;;6.85;2.92;;;;;;;26.55;49.41;100620.16;1447336;99;21574;-55
2022/09/15 06:11:08;;;;;;;3.98;2.42;;;;;;;26.58;49.31;100618.55;1411006;100;21118;-58
2022/09/15 06:13:36;;;;;;;5.73;2.30;;;;;;;26.64;49.24;100607.33;1371174;105;21615;-61
2022/09/15 06:16:13;;;;;;;4.72;2.62;;;;;;;26.64;49.24;100607.33;1401196;100;21604;-57
2022/09/15 06:18:40;;;;;;;4.97;2.52;;;;;;;26.69;49.09;100605.58;1332855;106;21743;-54
2022/09/15 06:21:14;;;;;;;8.93;3.00;;;;;;;26.68;49.09;100596.72;1329321;107;21307;-58
2022/09/15 06:23:41;;;;;;;7.62;2.95;;;;;;;26.68;49.26;100602.06;1339246;106;21174;-58
2022/09/15 06:26:16;;;;;;;6.25;2.52;;;;;;;26.65;49.54;100571.63;1323098;108;21162;-60
2022/09/15 06:28:51;;;;;;;5.03;2.62;;;;;;;26.65;49.54;100571.63;1340688;106;21654;-55
2022/09/15 06:31:20;;;;;;;4.92;2.60;;;;;;;26.71;50.33;100581.73;1336368;106;21133;-58
2022/09/15 06:33:52;;;;;;;6.35;2.55;;;;;;;26.71;50.33;100581.73;1342680;106;21218;-55
2022/09/15 06:36:21;;;;;;;8.05;3.22;;;;;;;26.72;50.17;100586.14;1334941;106;21174;-63
2022/09/15 06:38:47;;;;;;;5.50;2.47;;;;;;;26.74;49.99;100585.52;1342258;106;21159;-57
2022/09/15 06:41:14;;;;;;;5.65;2.72;;;;;;;26.75;49.86;100589.85;1337264;106;21182;-55
2022/09/15 06:43:41;;;;;;;7.62;2.65;;;;;;;26.73;49.71;100582.48;1338755;106;21158;-55
2022/09/15 06:46:13;;;;;;;7.58;2.95;;;;;;;26.76;49.64;100582.21;1340648;106;21710;-57
2022/09/15 06:48:39;;;;;;;;;;;;;;;26.76;49.59;100587.55;1343009;106;21157;-61
2022/09/15 06:51:07;;;;;;;5.67;2.85;;;;;;;26.77;49.66;100591.07;1339623;106;20140;-54
2022/09/15 06:53:36;;;;;;;7.83;2.45;;;;;;;26.79;49.63;100589.92;1339546;106;21226;-57
2022/09/15 06:56:11;;;;;;;4.62;2.30;;;;;;;26.79;49.63;100589.92;1340424;106;21173;-58
2022/09/15 06:58:39;;;;;;;8.20;2.80;;;;;;;26.78;49.68;100593.59;1336733;106;21754;-57
2022/09/15 07:01:08;;;;;;;4.10;2.60;;;;;;;26.80;49.97;100593.44;1328136;106;21226;-56
2022/09/15 07:03:36;;;;;;;7.20;2.75;;;;;;;26.79;49.98;100596.59;1325295;108;21753;-56
2022/09/15 07:06:04;;;;;;;7.05;3.58;;;;;;;26.80;49.89;100598.78;1323092;108;21180;-58
2022/09/15 07:08:31;;;;;;;5.05;2.22;;;;;;;26.83;50.01;100609.20;1350717;106;21615;-55
2022/09/15 07:10:59;;;;;;;7.00;2.30;;;;;;;26.83;50.01;100609.20;1356010;106;21171;-56
2022/09/15 07:13:25;;;;;;;7.97;2.95;;;;;;;26.82;49.70;100605.67;1356116;106;21136;-56
2022/09/15 07:15:57;;;;;;;4.92;2.75;;;;;;;26.87;49.86;100601.25;1378958;98;21124;-55
2022/09/15 07:18:24;;;;;;;5.60;2.42;;;;;;;26.87;49.86;100601.25;1440168;100;21133;-55
2022/09/15 07:20:51;;;;;;;7.50;2.85;;;;;;;26.94;49.88;100604.55;1447402;98;21165;-56
2022/09/15 07:23:18;;;;;;;7.17;2.95;;;;;;;27.08;49.22;100609.45;1464891;97;21144;-56
2022/09/15 07:25:45;;;;;;;4.90;2.77;;;;;;;27.08;49.22;100609.45;1489593;95;21138;-55
2022/09/15 07:28:14;;;;;;;4.35;2.47;;;;;;;27.13;48.61;100599.68;1491225;95;21137;-57
2022/09/15 07:30:41;;;;;;;5.75;2.52;;;;;;;27.16;48.25;100602.90;1423957;99;21097;-60
2022/09/15 07:33:10;;;;;;;6.78;2.75;;;;;;;27.18;48.19;100594.25;1425791;99;21119;-57
2022/09/15 07:35:42;;;;;;;8.20;2.98;;;;;;;27.19;48.14;100593.28;1416634;100;21147;-57
2022/09/15 07:38:09;;;;;;;4.85;2.77;;;;;;;27.22;47.81;100584.14;1419956;99;21147;-54
2022/09/15 07:40:37;;;;;;;7.08;2.67;;;;;;;27.22;47.80;100587.63;1402359;100;21162;-56
2022/09/15 07:43:05;;;;;;;4.12;2.45;;;;;;;27.24;47.56;100576.31;1376294;102;21170;-54
2022/09/15 07:45:32;;;;;;;4.33;2.90;;;;;;;27.24;47.38;100566.96;1406348;102;21193;-58
2022/09/15 07:47:58;;;;;;;7.78;2.70;;;;;;;27.24;47.38;100566.96;1375004;103;21205;-57
2022/09/15 07:50:25;;;;;;;5.03;2.30;;;;;;;27.26;47.11;100562.34;1381971;103;21165;-56
2022/09/15 07:52:56;;;;;;;4.95;2.60;;;;;;;27.27;46.87;100566.69;1398776;101;21198;-55
2022/09/15 07:55:23;;;;;;;5.85;2.10;;;;;;;27.26;46.91;100562.34;1415126;99;21104;-56
2022/09/15 07:57:59;;;;;;;6.50;2.72;;;;;;;27.22;46.92;100558.25;1455797;98;21149;-58
2022/09/15 08:00:27;;;;;;;6.17;2.52;;;;;;;27.20;46.96;100549.53;1455769;97;21152;-55
2022/09/15 08:02:53;;;;;;;4.03;2.50;;;;;;;27.17;46.87;100548.50;1460526;97;21709;-56
2022/09/15 08:05:21;;;;;;;3.65;2.40;;;;;;;27.15;46.91;100554.48;1452380;97;21089;-55
2022/09/15 08:07:48;;;;;;;6.35;2.00;;;;;;;27.13;46.88;100549.78;1461057;98;21181;-59
2022/09/15 08:10:17;;;;;;;7.80;2.42;;;;;;;27.13;46.72;100546.26;1458971;97;21201;-54
2022/09/15 08:12:44;;;;;;;3.55;2.17;;;;;;;27.11;46.69;100543.74;1459554;97;21699;-55
2022/09/15 08:15:10;;;;;;;5.85;2.62;;;;;;;27.09;46.60;100536.36;1462158;97;21121;-55
2022/09/15 08:17:38;;;;;;;6.87;2.77;;;;;;;27.10;46.60;100540.70;1456373;97;21189;-56
2022/09/15 08:20:07;;;;;;;4.85;2.47;;;;;;;27.10;46.60;100540.70;1457812;97;21073;-55
2022/09/15 08:22:35;;;;;;;4.43;2.20;;;;;;;27.10;46.43;100536.70;1514717;93;21120;-54
2022/09/15 08:25:03;;;;;;;6.58;2.42;;;;;;;27.12;46.42;100533.39;1509319;93;21097;-59
2022/09/15 08:27:31;;;;;;;5.03;2.02;;;;;;;27.13;46.21;100535.09;1562743;87;21045;-55
2022/09/15 08:29:58;;;;;;;10.08;2.15;;;;;;;27.14;46.32;100527.41;1618704;88;21076;-55
2022/09/15 08:32:25;;;;;;;5.05;2.30;;;;;;;27.11;45.86;100529.05;1614778;87;21112;-55
2022/09/15 08:34:51;;;;;;;5.35;2.52;;;;;;;27.11;45.86;100529.05;1608793;88;21057;-58
2022/09/15 08:37:18;;;;;;;5.78;2.50;;;;;;;27.07;45.91;100526.31;1612040;88;21073;-57
2022/09/15 08:39:45;;;;;;;4.60;2.77;;;;;;;27.03;45.98;100523.59;1620032;87;21057;-54
2022/09/15 08:42:17;;;;;;;5.87;1.92;;;;;;;27.02;46.38;100516.55;1618925;87;21538;-57
2022/09/15 08:44:51;;;;;;;3.37;2.00;;;;;;;27.01;46.61;100519.37;1555873;90;21064;-54
2022/09/15 08:47:23;;;;;;;3.12;2.30;;;;;;;27.02;46.64;100510.36;1534199;93;21103;-59
2022/09/15 08:50:20;;;;;;;4.90;2.55;;;;;;;27.00;46.62;100501.64;1513405;94;21146;-59
2022/09/15 08:53:10;;;;;;;5.28;2.62;;;;;;;27.04;46.88;100497.22;1486206;96;21157;-60
2022/09/15 08:55:47;;;;;;;5.40;2.60;;;;;;;27.07;47.24;100505.44;1467866;98;21121;-56
2022/09/15 08:58:19;;;;;;;3.98;2.42;;;;;;;27.10;46.84;100494.48;1476547;96;21122;-57
2022/09/15 09:00:50;;;;;;;5.75;2.77;;;;;;;27.14;46.50;100499.36;1456120;98;21097;-54
2022/09/15 09:03:57;;;;;;;4.72;2.52;;;;;;;27.14;46.50;100499.36;1455915;98;21777;-55
2022/09/15 09:06:45;;;;;;;3.72;2.35;;;;;;;27.17;46.68;100496.41;1396352;102;21671;-58
2022/09/15 09:09:26;;;;;;;5.62;2.60;;;;;;;27.19;46.75;100493.11;1394075;102;21172;-55
2022/09/15 09:15:30;;;;;;;7.60;2.45;;;;;;;27.19;47.16;100485.58;1470547;97;21127;-55
2022/09/15 09:18:22;;;;;;;6.62;2.33;;;;;;;27.20;47.97;100489.95;1452942;96;21656;-56
2022/09/15 09:21:21;;;;;;;5.12;2.62;;;;;;;27.20;47.97;100489.95;1460089;97;21197;-54
2022/09/15 09:23:53;;;;;;;9.20;2.67;;;;;;;27.24;48.23;100481.47;1461623;97;21080;-53
2022/09/15 09:26:20;;;;;;;5.22;2.67;;;;;;;27.29;48.34;100489.91;1500696;94;21093;-56
2022/09/15 09:28:59;;;;;;;6.40;2.62;;;;;;;27.31;48.45;100483.92;1502351;94;21154;-63
2022/09/15 09:31:26;;;;;;;5.83;2.47;;;;;;;27.36;48.46;100484.37;1499507;94;21162;-62
2022/09/15 09:34:28;;;;;;;5.97;2.80;;;;;;;27.41;48.52;100485.23;1514861;93;21148;-58
2022/09/15 09:37:00;;;;;;;5.67;2.70;;;;;;;27.45;48.58;100481.28;1533332;90;21106;-54
2022/09/15 09:39:27;;;;;;;5.35;3.30;;;;;;;27.48;48.58;100477.48;1574799;87;21214;-56
2022/09/15 09:41:54;;;;;;;6.08;2.05;;;;;;;27.48;48.68;100489.50;1617211;87;21010;-54
2022/09/15 09:44:30;;;;;;;5.20;2.35;;;;;;;27.47;48.69;100491.84;1633141;87;21521;-58
2022/09/15 09:46:49;;;;;;;6.12;2.65;;;;;;;27.47;48.72;100508.70;1621971;87;21031;-55
2022/09/15 09:49:22;;;;;;;4.50;2.90;;;;;;;27.46;48.96;100506.18;1600454;88;21065;-58
2022/09/15 09:51:57;;;;;;;7.42;2.72;;;;;;;27.45;49.31;100513.34;1576986;90;21084;-58
2022/09/15 09:54:27;;;;;;;5.08;2.33;;;;;;;27.44;49.69;100504.16;1525598;93;21105;-57
2022/09/15 09:56:55;;;;;;;4.53;2.02;;;;;;;27.46;50.15;100500.84;1531682;90;21572;-55
2022/09/15 09:59:39;;;;;;;4.75;2.58;;;;;;;27.45;50.25;100491.97;1527692;92;21602;-54
2022/09/15 10:02:25;;;;;;;5.15;2.37;;;;;;;27.45;49.94;100487.14;1524060;92;21750;-54
2022/09/15 10:04:56;;;;;;;3.67;2.10;;;;;;;27.45;49.35;100491.97;1541150;91;21025;-56
2022/09/15 10:07:26;;;;;;;7.67;2.40;;;;;;;27.44;49.13;100488.12;1554349;91;21053;-56
2022/09/15 10:09:58;;;;;;;5.62;2.37;;;;;;;27.44;49.36;100478.77;1548337;91;21092;-55
2022/09/15 10:12:37;;;;;;;8.43;2.80;;;;;;;27.44;49.72;100486.78;1547009;91;21081;-55
2022/09/15 10:15:05;;;;;;;6.80;2.87;;;;;;;27.45;49.89;100483.14;1524629;93;21144;-55
2022/09/15 10:17:42;;;;;;;4.30;2.50;;;;;;;27.45;50.00;100485.81;1522691;93;21084;-57
2022/09/15 10:20:36;;;;;;;6.05;2.72;;;;;;;27.45;50.04;100485.81;1460312;98;21178;-55
2022/09/15 10:23:20;;;;;;;5.42;2.80;;;;;;;27.45;50.25;100481.80;1462120;97;21652;-57
2022/09/15 10:25:47;;;;;;;5.55;2.70;;;;;;;27.45;50.26;100491.16;1472422;96;21118;-57
2022/09/15 10:28:17;;;;;;;6.42;2.50;;;;;;;27.45;50.20;100485.81;1468408;98;21151;-58
2022/09/15 10:31:09;;;;;;;4.10;2.10;;;;;;;27.44;49.27;100478.77;1475037;96;21240;-55
2022/09/15 10:33:41;;;;;;;5.78;2.50;;;;;;;27.42;48.66;100483.41;1470692;97;21100;-55
2022/09/15 10:36:22;;;;;;;4.10;2.27;;;;;;;27.39;48.74;100486.73;1468964;96;21090;-56
2022/09/15 10:38:55;;;;;;;4.55;2.25;;;;;;;27.38;48.94;100486.40;1468312;98;21142;-56
2022/09/15 10:41:30;;;;;;;6.67;2.90;;;;;;;27.35;49.09;100484.48;1469919;96;21134;-55
2022/09/15 10:44:09;;;;;;;7.47;2.80;;;;;;;27.30;49.24;100480.92;1520622;94;21089;-57
2022/09/15 10:46:47;;;;;;;4.42;2.30;;;;;;;27.27;49.49;100491.88;1489854;95;21127;-59
2022/09/15 10:49:40;;;;;;;5.95;2.30;;;;;;;27.24;49.54;100489.48;1513677;93;21174;-56
2022/09/15 10:52:35;;;;;;;4.10;2.62;;;;;;;27.22;49.54;100491.46;1522094;93;21082;-55
2022/09/15 10:55:46;;;;;;;2.80;2.30;;;;;;;27.20;49.87;100493.44;1511190;93;21036;-61
2022/09/15 10:58:31;;;;;;;5.28;2.70;;;;;;;27.19;50.41;100489.09;1479792;95;21079;-54
2022/09/15 11:01:10;;;;;;;13.28;5.37;;;;;;;27.19;51.08;100490.44;1510004;93;21121;-56
2022/09/15 11:04:07;;;;;;;6.35;3.75;;;;;;;27.18;51.66;100488.73;1475832;95;21111;-55
2022/09/15 11:07:05;;;;;;;12.45;5.67;;;;;;;27.17;52.04;100481.72;1498629;94;21148;-56
2022/09/15 11:09:37;;;;;;;10.43;4.58;;;;;;;27.14;52.31;100487.34;1514395;93;21830;-59
2022/09/15 11:12:10;;;;;;;;;;;;;;;27.11;52.35;100478.30;1537789;92;21084;-59
2022/09/15 11:14:47;;;;;;;7.10;3.47;;;;;;;27.11;52.02;100478.30;1509281;94;20115;-60
2022/09/15 11:17:35;;;;;;;4.75;2.90;;;;;;;27.10;50.94;100471.26;1561354;88;21041;-56
2022/09/15 11:20:45;;;;;;;5.15;2.60;;;;;;;27.11;50.88;100475.62;1591718;88;21095;-56
2022/09/15 11:23:41;;;;;;;10.75;2.83;;;;;;;27.11;50.88;100475.62;1587514;88;21096;-53
2022/09/15 11:26:21;;;;;;;3.92;2.50;;;;;;;27.12;50.85;100482.64;1591095;89;21058;-56
2022/09/15 11:28:53;;;;;;;6.08;2.83;;;;;;;27.12;51.03;100482.64;1506423;93;21620;-58
2022/09/15 11:31:25;;;;;;;6.65;2.52;;;;;;;27.13;51.28;100484.34;1507896;94;21142;-60
2022/09/15 11:34:18;;;;;;;7.22;2.72;;;;;;;27.14;51.37;100486.01;1512927;94;21622;-56
2022/09/15 11:37:20;;;;;;;2.87;2.40;;;;;;;27.16;51.34;100480.55;1528300;92;21117;-56
2022/09/15 11:40:13;;;;;;;6.00;2.22;;;;;;;27.20;50.42;100471.25;1510648;94;21080;-55
2022/09/15 11:43:06;;;;;;;4.65;2.37;;;;;;;27.20;50.42;100471.25;1522576;93;21120;-59
2022/09/15 11:45:37;;;;;;;5.58;2.22;;;;;;;27.21;49.52;100459.08;1496100;95;21122;-54
2022/09/15 11:48:12;;;;;;;6.67;2.20;;;;;;;27.27;48.96;100465.16;1503769;95;21652;-56
2022/09/15 11:50:42;;;;;;;6.67;2.42;;;;;;;27.31;48.21;100466.55;1502365;95;21147;-58
2022/09/15 11:53:26;;;;;;;4.92;2.02;;;;;;;27.34;46.26;100454.77;1503508;94;21034;-56
2022/09/15 12:12:50;;;;;;;2.20;1.40;;;;;;;27.66;43.79;100411.53;1579435;90;21657;-57
2022/09/15 12:15:18;;;;;;;2.90;1.82;;;;;;;27.76;43.45;100411.82;1576859;90;21093;-54
2022/09/15 12:18:02;;;;;;;5.37;1.57;;;;;;;27.83;43.16;100418.75;1585504;90;21168;-54
2022/09/15 12:20:38;;;;;;;5.10;1.75;;;;;;;27.90;42.61;100412.63;1583551;90;21069;-54